createdAt,value
2023-02-11T05:00:33.588Z,0.91
2023-02-11T05:04:45.162Z,0.91
2023-02-11T05:08:56.731Z,0.91
2023-02-11T05:13:08.231Z,0.94
2023-02-11T05:17:19.830Z,0.94
2023-02-11T05:21:31.447Z,0.91
2023-02-11T05:25:42.934Z,0.93
2023-02-11T05:29:54.503Z,0.97
2023-02-11T05:34:06.107Z,1.04
2023-02-11T05:38:17.831Z,1.02
2023-02-11T05:42:29.323Z,1.08
2023-02-11T05:46:40.858Z,1.10
2023-02-11T05:50:52.356Z,1.07
2023-02-11T05:55:04.116Z,1.04
2023-02-11T05:59:15.619Z,1.10
2023-02-11T06:03:27.246Z,1.10
2023-02-11T06:07:38.722Z,1.13
2023-02-11T06:11:50.367Z,1.16
2023-02-11T06:16:03.471Z,1.26
2023-02-11T06:20:15.569Z,1.26
2023-02-11T06:24:51.012Z,1.25
2023-02-11T06:29:02.111Z,1.27
2023-02-11T06:33:13.727Z,1.18
2023-02-11T06:37:25.314Z,1.15
2023-02-11T06:41:37.785Z,1.19
2023-02-11T06:45:54.490Z,1.15
2023-02-11T06:50:08.116Z,1.18
2023-02-11T06:54:19.625Z,1.15
2023-02-11T06:58:31.956Z,1.17
2023-02-11T07:02:43.937Z,1.27
2023-02-11T07:06:55.670Z,1.23
2023-02-11T07:11:11.635Z,1.20
2023-02-11T07:15:25.718Z,1.23
2023-02-11T07:19:37.324Z,1.13
2023-02-11T07:23:49.223Z,1.17
2023-02-11T07:28:06.850Z,1.20
2023-02-11T07:32:21.898Z,1.21
2023-02-11T07:36:36.653Z,1.23
2023-02-11T07:40:48.338Z,1.28
2023-02-11T07:44:59.981Z,1.40
2023-02-11T07:49:13.115Z,1.40
2023-02-11T07:53:28.056Z,1.43
2023-02-11T07:57:39.846Z,1.42
2023-02-11T08:01:51.733Z,1.49
2023-02-11T08:06:08.792Z,1.53
2023-02-11T08:10:21.234Z,1.46
2023-02-11T08:14:32.985Z,1.49
2023-02-11T08:18:44.584Z,1.54
2023-02-11T08:22:56.281Z,1.61
2023-02-11T08:27:08.095Z,1.68
2023-02-11T08:31:29.557Z,1.64
2023-02-11T08:35:41.582Z,1.78
2023-02-11T08:39:53.097Z,1.79
2023-02-11T08:44:04.854Z,1.87
2023-02-11T08:48:16.709Z,1.94
2023-02-11T08:52:28.465Z,1.98
2023-02-11T08:56:40.435Z,2.03
2023-02-11T09:00:52.580Z,2.14
2023-02-11T09:05:04.826Z,2.24
2023-02-11T09:09:17.605Z,2.26
2023-02-11T09:13:29.933Z,2.37
2023-02-11T09:17:41.613Z,2.53
2023-02-11T09:21:53.554Z,2.69
2023-02-11T09:26:10.785Z,2.80
2023-02-11T09:30:30.141Z,2.92
2023-02-11T09:34:42.347Z,3.07
2023-02-11T09:38:58.857Z,3.28
2023-02-11T09:43:21.441Z,3.50
2023-02-11T09:47:36.181Z,3.66
2023-02-11T09:52:02.919Z,3.87
2023-02-11T09:56:15.676Z,4.12
2023-02-11T10:00:40.496Z,4.26
2023-02-11T10:05:12.877Z,4.35
2023-02-11T10:10:09.390Z,4.59
2023-02-11T10:14:58.954Z,4.61
2023-02-11T10:20:05.264Z,4.81
2023-02-11T10:24:17.888Z,4.84
2023-02-11T10:28:37.144Z,4.99
2023-02-11T10:32:54.486Z,4.97
2023-02-11T10:37:07.160Z,5.19
2023-02-11T10:41:28.446Z,5.24
2023-02-11T10:45:49.844Z,5.50
2023-02-11T10:50:03.706Z,5.58
2023-02-11T10:54:24.314Z,5.54
2023-02-11T10:58:53.855Z,5.49
2023-02-11T11:03:19.485Z,5.49
2023-02-11T11:07:35.185Z,5.41
2023-02-11T11:11:53.672Z,5.42
2023-02-11T11:16:14.273Z,5.49
2023-02-11T11:20:33.930Z,5.59
2023-02-11T11:24:46.764Z,5.61
2023-02-11T11:29:09.290Z,5.61
2023-02-11T11:33:33.740Z,5.66
2023-02-11T11:37:46.042Z,5.80
2023-02-11T11:42:00.187Z,6.08
2023-02-11T11:46:28.685Z,6.28
2023-02-11T11:50:44.931Z,6.44
2023-02-11T11:55:07.796Z,6.64
2023-02-11T11:59:19.416Z,6.64
2023-02-11T12:04:03.170Z,6.80
2023-02-11T12:08:50.788Z,6.86
2023-02-11T12:13:30.059Z,7.02
2023-02-11T12:17:56.012Z,7.18
2023-02-11T12:22:26.227Z,7.24
2023-02-11T12:27:02.968Z,7.42
2023-02-11T12:31:32.833Z,7.55
2023-02-11T12:35:59.125Z,7.58
2023-02-11T12:40:21.801Z,7.66
2023-02-11T12:44:55.964Z,7.82
2023-02-11T12:49:40.869Z,7.85
2023-02-11T12:54:15.782Z,7.94
2023-02-11T12:58:44.134Z,7.98
2023-02-11T13:03:00.059Z,8.02
2023-02-11T13:07:21.422Z,7.96
2023-02-11T13:11:43.941Z,7.80
2023-02-11T13:16:07.291Z,7.66
2023-02-11T13:20:43.829Z,7.31
2023-02-11T13:25:19.672Z,7.22
2023-02-11T13:29:56.175Z,6.98
2023-02-11T13:34:45.929Z,6.84
2023-02-11T13:39:01.023Z,6.86
2023-02-11T13:43:23.214Z,6.80
2023-02-11T13:47:37.233Z,6.68
2023-02-11T13:51:49.648Z,6.67
2023-02-11T13:56:11.844Z,6.55
2023-02-11T14:00:35.464Z,6.50
2023-02-11T14:05:42.624Z,6.50
2023-02-11T14:09:56.995Z,6.42
2023-02-11T14:14:17.647Z,6.49
2023-02-11T14:18:44.360Z,6.42
2023-02-11T14:22:56.086Z,6.61
2023-02-11T14:27:15.519Z,6.60
2023-02-11T14:31:41.159Z,6.57
2023-02-11T14:36:14.660Z,6.52
2023-02-11T14:40:39.014Z,6.39
2023-02-11T14:44:52.819Z,6.36
2023-02-11T14:49:05.565Z,6.38
2023-02-11T14:53:20.826Z,6.35
2023-02-11T14:57:33.415Z,6.31
2023-02-11T15:01:49.906Z,6.32
2023-02-11T15:06:19.290Z,6.30
2023-02-11T15:10:35.332Z,6.29
2023-02-11T15:14:49.368Z,6.30
2023-02-11T15:19:07.080Z,6.27
2023-02-11T15:23:24.681Z,6.25
2023-02-11T15:27:41.880Z,6.25
2023-02-11T15:32:24.121Z,6.25
2023-02-11T15:36:36.387Z,6.22
2023-02-11T15:41:02.464Z,6.20
2023-02-11T15:45:13.964Z,6.21
2023-02-11T15:49:26.503Z,6.19
2023-02-11T15:53:42.248Z,6.16
2023-02-11T15:58:00.403Z,6.13
2023-02-11T16:02:32.568Z,6.10
2023-02-11T16:06:47.758Z,6.05
2023-02-11T16:11:03.364Z,5.98
2023-02-11T16:15:30.549Z,5.83
2023-02-11T16:19:45.758Z,5.81
2023-02-11T16:23:58.196Z,5.76
2023-02-11T16:28:16.365Z,5.63
2023-02-11T16:32:29.647Z,5.61
2023-02-11T16:36:41.436Z,5.64
2023-02-11T16:40:53.318Z,5.65
2023-02-11T16:45:05.229Z,5.61
2023-02-11T16:49:24.449Z,5.59
2023-02-11T16:53:36.121Z,5.55
2023-02-11T16:57:47.944Z,5.56
2023-02-11T17:02:01.970Z,5.57
2023-02-11T17:06:13.769Z,5.56
2023-02-11T17:10:25.329Z,5.53
2023-02-11T17:14:36.892Z,5.44
2023-02-11T17:18:49.122Z,5.44
2023-02-11T17:23:00.679Z,5.44
2023-02-11T17:27:12.490Z,5.43
2023-02-11T17:31:24.165Z,5.41
2023-02-11T17:35:39.271Z,5.41
2023-02-11T17:39:51.025Z,5.41
2023-02-11T17:44:02.637Z,5.41
2023-02-11T17:48:14.171Z,5.42
2023-02-11T17:52:27.867Z,5.40
2023-02-11T17:56:39.522Z,5.40
2023-02-11T18:00:51.169Z,5.38
2023-02-11T18:05:02.870Z,5.40
2023-02-11T18:09:14.512Z,5.41
2023-02-11T18:13:27.156Z,5.39
2023-02-11T18:17:38.717Z,5.38
2023-02-11T18:21:50.952Z,5.36
2023-02-11T18:26:03.026Z,5.37
2023-02-11T18:30:17.989Z,5.35
2023-02-11T18:34:29.580Z,5.31
2023-02-11T18:38:42.157Z,5.28
2023-02-11T18:42:53.679Z,5.25
2023-02-11T18:47:05.297Z,5.22
2023-02-11T18:51:18.666Z,5.23
2023-02-11T18:55:30.316Z,5.22
2023-02-11T18:59:42.917Z,5.23
2023-02-11T19:03:57.279Z,5.18
2023-02-11T19:08:08.976Z,5.15
2023-02-11T19:12:20.468Z,5.20
2023-02-11T19:16:32.017Z,5.19
2023-02-11T19:20:44.198Z,5.18
2023-02-11T19:24:55.830Z,5.21
2023-02-11T19:29:07.507Z,5.21
2023-02-11T19:33:19.070Z,5.16
2023-02-11T19:37:30.649Z,5.10
2023-02-11T19:41:42.764Z,5.07
2023-02-11T19:45:56.252Z,5.06
2023-02-11T19:50:08.605Z,5.01
2023-02-11T19:54:21.053Z,4.99
2023-02-11T19:58:32.549Z,4.98
2023-02-11T20:02:44.217Z,5.00
2023-02-11T20:06:55.709Z,4.95
2023-02-11T20:11:13.800Z,4.95
2023-02-11T20:15:25.245Z,4.93
2023-02-11T20:19:36.771Z,4.93
2023-02-11T20:23:49.975Z,4.96
2023-02-11T20:28:01.526Z,4.96
2023-02-11T20:32:14.105Z,4.99
2023-02-11T20:36:32.109Z,5.01
2023-02-11T20:40:44.143Z,4.95
2023-02-11T20:44:55.713Z,4.98
2023-02-11T20:49:08.603Z,4.91
2023-02-11T20:53:20.247Z,4.92
2023-02-11T20:57:31.833Z,4.93
2023-02-11T21:01:46.042Z,4.93
2023-02-11T21:06:01.173Z,4.90
2023-02-11T21:10:12.710Z,4.93
2023-02-11T21:14:25.923Z,4.94
2023-02-11T21:18:37.757Z,4.98
2023-02-11T21:22:49.329Z,4.97
2023-02-11T21:27:00.978Z,4.95
2023-02-11T21:31:22.904Z,4.89
2023-02-11T21:35:35.473Z,4.87
2023-02-11T21:39:47.126Z,4.83
2023-02-11T21:43:58.747Z,4.80
2023-02-11T21:48:49.913Z,4.78
2023-02-11T21:53:12.867Z,4.78
2023-02-11T21:57:42.328Z,4.77
2023-02-11T22:02:13.198Z,4.75
2023-02-11T22:06:55.321Z,4.73
2023-02-11T22:11:47.199Z,4.70
